Pleasant Hill, Illinois
Current Conditions -  °F | °C
As of 12:15 PM on Friday 19 Dec 2014 (Local Time) from KPPQ Reporting Station
Overcast Overcast  
Wind Chill: 29°   Ceiling: 6000
Heat Index: 33°   Visibility: 10mi
Dew Point: 27°   Wind: 5mph
Humidity: 77%   Direction: 140°SE
Pressure: 30.29"   Gusts: NA
Location:  39.44°N, 90.87°W
Report Text: KPPQ 191815Z AUTO 14004KT 10SM OVC060 01/M03 A3029 RMK AO2 T00061030
Loading
Personal Weather Stations






























Interactive Weather Map New forecast layout! Learn more

10-Day Weather Forecast

Advertisements
Track Severe Weather on mobile